ETH365 HDAM-HAAB
Flight info
| Callsign | ETH365 |
|---|---|
| Flight time | 0h 51m |
| Altitude | 32000 |
| Route | LAKBE1G LAKBE LAKBE2A |
| Aircraft | B38M/M-SDE1FGHILORVWXY/HB1 |
Departure
| Time | 2026-04-22 13:49 |
|---|---|
| Airport | Djibouti-Ambouli Airport (HDAM) |
Arrival
| Time | 2026-04-22 14:41 |
|---|---|
| Airport | Addis Ababa Bole International Airport (HAAB) |
| Time | Latitude | Longitude | Altitude | Speed | Heading |
|---|---|---|---|---|---|
| 2026-04-22 13:27 | 11.55122 | 43.15004 | 36 ft | 0 kts | 0° |
| 2026-04-22 13:45 | 11.55123 | 43.15004 | 62 ft | 1 kts | 345° |
| 2026-04-22 13:45 | 11.55129 | 43.14988 | 56 ft | 4 kts | 269° |
| 2026-04-22 13:45 | 11.55117 | 43.14971 | 55 ft | 2 kts | 203° |
| 2026-04-22 13:45 | 11.55096 | 43.14963 | 57 ft | 5 kts | 201° |
| 2026-04-22 13:46 | 11.55051 | 43.14946 | 59 ft | 9 kts | 198° |
| 2026-04-22 13:46 | 11.55008 | 43.14891 | 60 ft | 13 kts | 263° |
| 2026-04-22 13:46 | 11.55007 | 43.14785 | 62 ft | 17 kts | 267° |
| 2026-04-22 13:46 | 11.55007 | 43.14662 | 62 ft | 18 kts | 271° |
| 2026-04-22 13:47 | 11.54957 | 43.14609 | 62 ft | 12 kts | 182° |
| 2026-04-22 13:47 | 11.54867 | 43.14609 | 62 ft | 15 kts | 179° |
| 2026-04-22 13:47 | 11.54760 | 43.14611 | 62 ft | 6 kts | 178° |
| 2026-04-22 13:47 | 11.54748 | 43.14633 | 63 ft | 4 kts | 75° |
| 2026-04-22 13:48 | 11.54751 | 43.14665 | 64 ft | 5 kts | 87° |
| 2026-04-22 13:48 | 11.54752 | 43.14729 | 63 ft | 15 kts | 90° |
| 2026-04-22 13:48 | 11.54749 | 43.15005 | 64 ft | 74 kts | 91° |
| 2026-04-22 13:48 | 11.54736 | 43.15766 | 65 ft | 138 kts | 91° |
| 2026-04-22 13:49 | 11.54710 | 43.16899 | 248 ft | 174 kts | 91° |
| 2026-04-22 13:49 | 11.54667 | 43.18166 | 1033 ft | 174 kts | 90° |
| 2026-04-22 13:49 | 11.54519 | 43.19355 | 1980 ft | 174 kts | 108° |
| 2026-04-22 13:49 | 11.53668 | 43.20307 | 2404 ft | 200 kts | 154° |
| 2026-04-22 13:50 | 11.52226 | 43.20323 | 2842 ft | 227 kts | 201° |
| 2026-04-22 13:50 | 11.51008 | 43.19227 | 3407 ft | 248 kts | 240° |
| 2026-04-22 13:50 | 11.50389 | 43.17584 | 4283 ft | 246 kts | 252° |
| 2026-04-22 13:50 | 11.49778 | 43.15981 | 5295 ft | 242 kts | 243° |
| 2026-04-22 13:51 | 11.48966 | 43.14452 | 6085 ft | 249 kts | 241° |
| 2026-04-22 13:51 | 11.48053 | 43.12906 | 6675 ft | 263 kts | 239° |
| 2026-04-22 13:51 | 11.47058 | 43.11267 | 7172 ft | 280 kts | 239° |
| 2026-04-22 13:51 | 11.46022 | 43.09540 | 7816 ft | 289 kts | 239° |
| 2026-04-22 13:52 | 11.44975 | 43.07770 | 8617 ft | 294 kts | 239° |
| 2026-04-22 13:52 | 11.43920 | 43.05968 | 9404 ft | 298 kts | 239° |
| 2026-04-22 13:52 | 11.42851 | 43.04131 | 10094 ft | 307 kts | 238° |
| 2026-04-22 13:52 | 11.41728 | 43.02206 | 10458 ft | 326 kts | 238° |
| 2026-04-22 13:53 | 11.40529 | 43.00158 | 10757 ft | 346 kts | 238° |
| 2026-04-22 13:53 | 11.39268 | 42.97996 | 11130 ft | 361 kts | 238° |
| 2026-04-22 13:53 | 11.37970 | 42.95759 | 11592 ft | 372 kts | 239° |
| 2026-04-22 13:53 | 11.36654 | 42.93477 | 12277 ft | 375 kts | 238° |
| 2026-04-22 13:54 | 11.35342 | 42.91195 | 12917 ft | 380 kts | 238° |
| 2026-04-22 13:54 | 11.33999 | 42.88859 | 13565 ft | 385 kts | 238° |
| 2026-04-22 13:54 | 11.32643 | 42.86493 | 14153 ft | 388 kts | 240° |
| 2026-04-22 13:54 | 11.31582 | 42.83948 | 14771 ft | 392 kts | 248° |
| 2026-04-22 13:55 | 11.30580 | 42.81353 | 15352 ft | 396 kts | 247° |
| 2026-04-22 13:55 | 11.29543 | 42.78743 | 15961 ft | 398 kts | 247° |
| 2026-04-22 13:55 | 11.28489 | 42.76126 | 16554 ft | 400 kts | 247° |
| 2026-04-22 13:55 | 11.27426 | 42.73499 | 17162 ft | 402 kts | 247° |
| 2026-04-22 13:56 | 11.26349 | 42.70855 | 17700 ft | 406 kts | 248° |
| 2026-04-22 13:56 | 11.25266 | 42.68194 | 18219 ft | 408 kts | 248° |
| 2026-04-22 13:56 | 11.24176 | 42.65519 | 18684 ft | 410 kts | 248° |
| 2026-04-22 13:56 | 11.23081 | 42.62829 | 19135 ft | 412 kts | 248° |
| 2026-04-22 13:57 | 11.21978 | 42.60120 | 19596 ft | 414 kts | 248° |
| 2026-04-22 13:57 | 11.20873 | 42.57407 | 20050 ft | 416 kts | 248° |
| 2026-04-22 13:57 | 11.19760 | 42.54676 | 20487 ft | 418 kts | 248° |
| 2026-04-22 13:57 | 11.18642 | 42.51930 | 20924 ft | 420 kts | 248° |
| 2026-04-22 13:58 | 11.17518 | 42.49174 | 21339 ft | 422 kts | 248° |
| 2026-04-22 13:58 | 11.16389 | 42.46407 | 21760 ft | 424 kts | 248° |
| 2026-04-22 13:58 | 11.15254 | 42.43623 | 22188 ft | 426 kts | 249° |
| 2026-04-22 13:58 | 11.14115 | 42.40833 | 22608 ft | 428 kts | 249° |
| 2026-04-22 13:59 | 11.12972 | 42.38031 | 23005 ft | 430 kts | 249° |
| 2026-04-22 13:59 | 11.11823 | 42.35218 | 23388 ft | 431 kts | 249° |
| 2026-04-22 13:59 | 11.10670 | 42.32395 | 23710 ft | 432 kts | 249° |
| 2026-04-22 13:59 | 11.09514 | 42.29563 | 24060 ft | 433 kts | 249° |
| 2026-04-22 14:00 | 11.08355 | 42.26728 | 24389 ft | 434 kts | 249° |
| 2026-04-22 14:00 | 11.07193 | 42.23886 | 24724 ft | 435 kts | 250° |
| 2026-04-22 14:00 | 11.06030 | 42.21039 | 25051 ft | 436 kts | 249° |
| 2026-04-22 14:00 | 11.04862 | 42.18183 | 25349 ft | 438 kts | 250° |
| 2026-04-22 14:01 | 11.03493 | 42.15403 | 25618 ft | 443 kts | 238° |
| 2026-04-22 14:01 | 11.01643 | 42.12893 | 25980 ft | 443 kts | 236° |
| 2026-04-22 14:01 | 10.99789 | 42.10373 | 26225 ft | 446 kts | 236° |
| 2026-04-22 14:01 | 10.97922 | 42.07842 | 26528 ft | 448 kts | 236° |
| 2026-04-22 14:02 | 10.96070 | 42.05335 | 26801 ft | 450 kts | 236° |
| 2026-04-22 14:02 | 10.94185 | 42.02786 | 27102 ft | 452 kts | 236° |
| 2026-04-22 14:02 | 10.92267 | 42.00190 | 27391 ft | 453 kts | 236° |
| 2026-04-22 14:02 | 10.90393 | 41.97655 | 27667 ft | 455 kts | 236° |
| 2026-04-22 14:03 | 10.88484 | 41.95074 | 27954 ft | 457 kts | 236° |
| 2026-04-22 14:03 | 10.86573 | 41.92491 | 28216 ft | 458 kts | 236° |
| 2026-04-22 14:03 | 10.84651 | 41.89894 | 28489 ft | 460 kts | 236° |
| 2026-04-22 14:03 | 10.82724 | 41.87289 | 28740 ft | 462 kts | 236° |
| 2026-04-22 14:04 | 10.80788 | 41.84673 | 28997 ft | 463 kts | 236° |
| 2026-04-22 14:04 | 10.79502 | 41.82936 | 29166 ft | 465 kts | 236° |
| 2026-04-22 14:04 | 10.77555 | 41.80307 | 29413 ft | 467 kts | 236° |
| 2026-04-22 14:04 | 10.75597 | 41.77664 | 29662 ft | 468 kts | 236° |
| 2026-04-22 14:05 | 10.73632 | 41.75012 | 29889 ft | 470 kts | 236° |
| 2026-04-22 14:05 | 10.71662 | 41.72353 | 30098 ft | 471 kts | 236° |
| 2026-04-22 14:05 | 10.67703 | 41.67013 | 30529 ft | 473 kts | 236° |
| 2026-04-22 14:06 | 10.65721 | 41.64341 | 30807 ft | 473 kts | 236° |
| 2026-04-22 14:06 | 10.63740 | 41.61670 | 31094 ft | 472 kts | 236° |
| 2026-04-22 14:06 | 10.61766 | 41.59009 | 31374 ft | 472 kts | 236° |
| 2026-04-22 14:06 | 10.59789 | 41.56346 | 31649 ft | 471 kts | 236° |
| 2026-04-22 14:07 | 10.57816 | 41.53687 | 31710 ft | 471 kts | 236° |
| 2026-04-22 14:07 | 10.53884 | 41.48392 | 31704 ft | 468 kts | 236° |
| 2026-04-22 14:08 | 10.49957 | 41.43106 | 31704 ft | 469 kts | 236° |
| 2026-04-22 14:08 | 10.46027 | 41.37819 | 31702 ft | 469 kts | 236° |
| 2026-04-22 14:09 | 10.42104 | 41.32544 | 31704 ft | 469 kts | 236° |
| 2026-04-22 14:09 | 10.38164 | 41.27248 | 31705 ft | 469 kts | 236° |
| 2026-04-22 14:10 | 10.34227 | 41.21960 | 31709 ft | 469 kts | 236° |
| 2026-04-22 14:10 | 10.30292 | 41.16674 | 31707 ft | 469 kts | 236° |
| 2026-04-22 14:11 | 10.26350 | 41.11383 | 31707 ft | 469 kts | 236° |
| 2026-04-22 14:11 | 10.22410 | 41.06099 | 31707 ft | 469 kts | 236° |
| 2026-04-22 14:12 | 10.18467 | 41.00810 | 31709 ft | 470 kts | 236° |
| 2026-04-22 14:12 | 10.14525 | 40.95527 | 31708 ft | 470 kts | 236° |
| 2026-04-22 14:13 | 10.10579 | 40.90241 | 31709 ft | 469 kts | 236° |
| 2026-04-22 14:13 | 10.06639 | 40.84964 | 31708 ft | 469 kts | 236° |
| 2026-04-22 14:14 | 10.02692 | 40.79682 | 31701 ft | 469 kts | 236° |
| 2026-04-22 14:14 | 9.98747 | 40.74403 | 31714 ft | 469 kts | 236° |
| 2026-04-22 14:15 | 9.94829 | 40.69163 | 31712 ft | 469 kts | 236° |
| 2026-04-22 14:15 | 9.90880 | 40.63886 | 31716 ft | 469 kts | 236° |
| 2026-04-22 14:16 | 9.86932 | 40.58611 | 31716 ft | 469 kts | 236° |
| 2026-04-22 14:16 | 9.82989 | 40.53345 | 31717 ft | 469 kts | 236° |
| 2026-04-22 14:17 | 9.79038 | 40.48070 | 31718 ft | 469 kts | 236° |
| 2026-04-22 14:17 | 9.75092 | 40.42805 | 31723 ft | 469 kts | 236° |
| 2026-04-22 14:18 | 9.71142 | 40.37537 | 31724 ft | 469 kts | 236° |
| 2026-04-22 14:18 | 9.67456 | 40.32105 | 31722 ft | 467 kts | 240° |
| 2026-04-22 14:19 | 9.63898 | 40.26586 | 31724 ft | 468 kts | 239° |
| 2026-04-22 14:19 | 9.60320 | 40.21077 | 31732 ft | 468 kts | 239° |
| 2026-04-22 14:20 | 9.54953 | 40.12816 | 31747 ft | 468 kts | 239° |
| 2026-04-22 14:20 | 9.51374 | 40.07308 | 31754 ft | 468 kts | 239° |
| 2026-04-22 14:21 | 9.46025 | 39.99084 | 31772 ft | 468 kts | 239° |
| 2026-04-22 14:22 | 9.40649 | 39.90821 | 31790 ft | 468 kts | 239° |
| 2026-04-22 14:23 | 9.35271 | 39.82562 | 31815 ft | 468 kts | 239° |
| 2026-04-22 14:23 | 9.31683 | 39.77055 | 31826 ft | 468 kts | 239° |
| 2026-04-22 14:24 | 9.28092 | 39.71547 | 31824 ft | 468 kts | 239° |
| 2026-04-22 14:24 | 9.24503 | 39.66045 | 31844 ft | 469 kts | 239° |
| 2026-04-22 14:25 | 9.20911 | 39.60536 | 31850 ft | 469 kts | 239° |
| 2026-04-22 14:25 | 9.17337 | 39.55061 | 31075 ft | 465 kts | 239° |
| 2026-04-22 14:25 | 9.15543 | 39.52311 | 30019 ft | 472 kts | 239° |
| 2026-04-22 14:26 | 9.13717 | 39.49516 | 28935 ft | 478 kts | 239° |
| 2026-04-22 14:26 | 9.11882 | 39.46705 | 28000 ft | 479 kts | 239° |
| 2026-04-22 14:26 | 9.10050 | 39.43900 | 27101 ft | 478 kts | 239° |
| 2026-04-22 14:26 | 9.08208 | 39.41082 | 26151 ft | 481 kts | 238° |
| 2026-04-22 14:27 | 9.06369 | 39.38269 | 25429 ft | 478 kts | 238° |
| 2026-04-22 14:27 | 9.04541 | 39.35473 | 24693 ft | 476 kts | 238° |
| 2026-04-22 14:27 | 9.02739 | 39.32716 | 23958 ft | 475 kts | 237° |
| 2026-04-22 14:27 | 9.00894 | 39.29896 | 23153 ft | 474 kts | 237° |
| 2026-04-22 14:28 | 8.99101 | 39.27151 | 22338 ft | 473 kts | 238° |
| 2026-04-22 14:28 | 8.97655 | 39.24182 | 21456 ft | 472 kts | 252° |
| 2026-04-22 14:28 | 8.97000 | 39.20959 | 20878 ft | 464 kts | 263° |
| 2026-04-22 14:28 | 8.96573 | 39.17732 | 20120 ft | 463 kts | 263° |
| 2026-04-22 14:29 | 8.96234 | 39.14809 | 19496 ft | 461 kts | 264° |
| 2026-04-22 14:29 | 8.95886 | 39.11609 | 18903 ft | 456 kts | 265° |
| 2026-04-22 14:29 | 8.95555 | 39.08414 | 18244 ft | 455 kts | 265° |
| 2026-04-22 14:29 | 8.95237 | 39.05256 | 17710 ft | 448 kts | 265° |
| 2026-04-22 14:30 | 8.94926 | 39.02114 | 16754 ft | 450 kts | 265° |
| 2026-04-22 14:30 | 8.94619 | 38.99035 | 16326 ft | 431 kts | 265° |
| 2026-04-22 14:30 | 8.94321 | 38.96042 | 16073 ft | 417 kts | 265° |
| 2026-04-22 14:30 | 8.93844 | 38.93273 | 16129 ft | 387 kts | 252° |
| 2026-04-22 14:31 | 8.92764 | 38.90889 | 16115 ft | 361 kts | 242° |
| 2026-04-22 14:31 | 8.91585 | 38.88700 | 15750 ft | 350 kts | 241° |
| 2026-04-22 14:31 | 8.90405 | 38.86589 | 15358 ft | 340 kts | 240° |
| 2026-04-22 14:31 | 8.89243 | 38.84546 | 15002 ft | 330 kts | 240° |
| 2026-04-22 14:32 | 8.88106 | 38.82570 | 14642 ft | 320 kts | 239° |
| 2026-04-22 14:32 | 8.87000 | 38.80662 | 14330 ft | 309 kts | 239° |
| 2026-04-22 14:32 | 8.85931 | 38.78823 | 14061 ft | 297 kts | 239° |
| 2026-04-22 14:32 | 8.84906 | 38.77063 | 13859 ft | 283 kts | 239° |
| 2026-04-22 14:33 | 8.83932 | 38.75390 | 13678 ft | 269 kts | 238° |
| 2026-04-22 14:33 | 8.82995 | 38.73784 | 13528 ft | 263 kts | 238° |
| 2026-04-22 14:33 | 8.82074 | 38.72203 | 13375 ft | 259 kts | 238° |
| 2026-04-22 14:33 | 8.81161 | 38.70637 | 13230 ft | 258 kts | 238° |
| 2026-04-22 14:34 | 8.80252 | 38.69077 | 12897 ft | 258 kts | 238° |
| 2026-04-22 14:34 | 8.79400 | 38.67482 | 12723 ft | 259 kts | 249° |
| 2026-04-22 14:34 | 8.79149 | 38.65703 | 12447 ft | 255 kts | 274° |
| 2026-04-22 14:34 | 8.79591 | 38.64011 | 12088 ft | 252 kts | 296° |
| 2026-04-22 14:35 | 8.80610 | 38.62575 | 11725 ft | 247 kts | 319° |
| 2026-04-22 14:35 | 8.81987 | 38.61629 | 11434 ft | 239 kts | 338° |
| 2026-04-22 14:35 | 8.83544 | 38.61180 | 11193 ft | 228 kts | 358° |
| 2026-04-22 14:35 | 8.85111 | 38.61160 | 11084 ft | 224 kts | 5° |
| 2026-04-22 14:36 | 8.86641 | 38.61347 | 10961 ft | 218 kts | 24° |
| 2026-04-22 14:36 | 8.87957 | 38.62055 | 10821 ft | 212 kts | 35° |
| 2026-04-22 14:36 | 8.89194 | 38.62844 | 10739 ft | 209 kts | 37° |
| 2026-04-22 14:36 | 8.90407 | 38.63657 | 10611 ft | 208 kts | 38° |
| 2026-04-22 14:37 | 8.91580 | 38.64469 | 10481 ft | 200 kts | 38° |
| 2026-04-22 14:37 | 8.92550 | 38.65411 | 10191 ft | 190 kts | 62° |
| 2026-04-22 14:37 | 8.93170 | 38.66542 | 9897 ft | 180 kts | 64° |
| 2026-04-22 14:37 | 8.93756 | 38.67637 | 9654 ft | 173 kts | 65° |
| 2026-04-22 14:38 | 8.94337 | 38.68681 | 9478 ft | 169 kts | 66° |
| 2026-04-22 14:38 | 8.94746 | 38.69779 | 9296 ft | 166 kts | 77° |
| 2026-04-22 14:38 | 8.95061 | 38.70900 | 8978 ft | 166 kts | 76° |
| 2026-04-22 14:38 | 8.95383 | 38.72010 | 8644 ft | 162 kts | 77° |
| 2026-04-22 14:39 | 8.95702 | 38.73099 | 8379 ft | 162 kts | 76° |
| 2026-04-22 14:39 | 8.96023 | 38.74193 | 8204 ft | 163 kts | 76° |
| 2026-04-22 14:39 | 8.96328 | 38.75277 | 8063 ft | 160 kts | 77° |
| 2026-04-22 14:40 | 8.96877 | 38.77128 | 7934 ft | 171 kts | 75° |
| 2026-04-22 14:40 | 8.97317 | 38.78626 | 7655 ft | 161 kts | 75° |
| 2026-04-22 14:40 | 8.97600 | 38.79602 | 7619 ft | 114 kts | 74° |
| 2026-04-22 14:40 | 8.97757 | 38.80148 | 7621 ft | 50 kts | 72° |
| 2026-04-22 14:41 | 8.97815 | 38.80343 | 7621 ft | 23 kts | 74° |
| 2026-04-22 14:41 | 8.97858 | 38.80487 | 7620 ft | 19 kts | 70° |
| 2026-04-22 14:41 | 8.97920 | 38.80603 | 7618 ft | 19 kts | 55° |
| 2026-04-22 14:41 | 8.98008 | 38.80698 | 7617 ft | 19 kts | 44° |
| 2026-04-22 14:42 | 8.98088 | 38.80740 | 7616 ft | 11 kts | 335° |
| 2026-04-22 14:42 | 8.98107 | 38.80671 | 7616 ft | 11 kts | 257° |
| 2026-04-22 14:42 | 8.98086 | 38.80599 | 7617 ft | 11 kts | 254° |
| 2026-04-22 14:42 | 8.98066 | 38.80527 | 7617 ft | 11 kts | 254° |
| 2026-04-22 14:43 | 8.98046 | 38.80454 | 7618 ft | 11 kts | 254° |
| 2026-04-22 14:43 | 8.98025 | 38.80384 | 7619 ft | 10 kts | 252° |
| 2026-04-22 14:43 | 8.98004 | 38.80318 | 7622 ft | 10 kts | 253° |
| 2026-04-22 14:43 | 8.97985 | 38.80249 | 7621 ft | 11 kts | 255° |
| 2026-04-22 14:44 | 8.97995 | 38.80177 | 7620 ft | 11 kts | 318° |
| 2026-04-22 14:44 | 8.98074 | 38.80150 | 7618 ft | 13 kts | 343° |
| 2026-04-22 14:44 | 8.98161 | 38.80125 | 7617 ft | 13 kts | 344° |
| 2026-04-22 14:44 | 8.98251 | 38.80097 | 7616 ft | 14 kts | 332° |
| 2026-04-22 14:45 | 8.98276 | 38.80017 | 7616 ft | 10 kts | 255° |
| 2026-04-22 14:45 | 8.98257 | 38.79959 | 7616 ft | 8 kts | 252° |
| 2026-04-22 14:45 | 8.98255 | 38.79931 | 7616 ft | 3 kts | 291° |
| 2026-04-22 14:45 | 8.98271 | 38.79920 | 7616 ft | 3 kts | 346° |
| 2026-04-22 14:46 | 8.98290 | 38.79916 | 7617 ft | 3 kts | 348° |
| 2026-04-22 14:46 | 8.98310 | 38.79911 | 7616 ft | 0 kts | 345° |